sensor_id;sensor_type;location;lat;lon;timestamp;temperature;humidity
16479;DHT22;8350;52.316;10.530;2022-12-26T00:00:17;11.00;99.90
16479;DHT22;8350;52.316;10.530;2022-12-26T00:02:44;11.00;99.90
16479;DHT22;8350;52.316;10.530;2022-12-26T00:05:11;11.00;99.90
16479;DHT22;8350;52.316;10.530;2022-12-26T00:07:39;11.00;99.90
16479;DHT22;8350;52.316;10.530;2022-12-26T00:10:07;11.00;99.90
16479;DHT22;8350;52.316;10.530;2022-12-26T00:12:34;11.00;99.90
16479;DHT22;8350;52.316;10.530;2022-12-26T00:15:00;10.90;99.90
16479;DHT22;8350;52.316;10.530;2022-12-26T00:17:27;10.90;99.90
16479;DHT22;8350;52.316;10.530;2022-12-26T00:19:54;10.90;99.90
16479;DHT22;8350;52.316;10.530;2022-12-26T00:22:21;10.90;99.90
16479;DHT22;8350;52.316;10.530;2022-12-26T00:24:50;10.80;99.90
16479;DHT22;8350;52.316;10.530;2022-12-26T00:27:17;10.80;99.90
16479;DHT22;8350;52.316;10.530;2022-12-26T00:29:44;10.90;99.90
16479;DHT22;8350;52.316;10.530;2022-12-26T00:32:15;10.80;99.90
16479;DHT22;8350;52.316;10.530;2022-12-26T00:34:42;10.80;99.90
16479;DHT22;8350;52.316;10.530;2022-12-26T00:37:09;10.70;99.90
16479;DHT22;8350;52.316;10.530;2022-12-26T00:39:35;10.70;99.90
16479;DHT22;8350;52.316;10.530;2022-12-26T00:42:04;10.70;99.90
16479;DHT22;8350;52.316;10.530;2022-12-26T00:44:31;10.70;99.90
16479;DHT22;8350;52.316;10.530;2022-12-26T00:46:57;10.60;99.90
16479;DHT22;8350;52.316;10.530;2022-12-26T00:49:24;10.60;99.90
16479;DHT22;8350;52.316;10.530;2022-12-26T00:51:51;10.60;99.90
16479;DHT22;8350;52.316;10.530;2022-12-26T00:54:18;10.60;99.90
16479;DHT22;8350;52.316;10.530;2022-12-26T00:56:45;10.60;99.90
16479;DHT22;8350;52.316;10.530;2022-12-26T00:59:13;10.60;99.90
16479;DHT22;8350;52.316;10.530;2022-12-26T01:01:40;10.50;99.90
16479;DHT22;8350;52.316;10.530;2022-12-26T01:04:07;10.50;99.90
16479;DHT22;8350;52.316;10.530;2022-12-26T01:06:34;10.50;99.90
16479;DHT22;8350;52.316;10.530;2022-12-26T01:09:01;10.40;99.90
16479;DHT22;8350;52.316;10.530;2022-12-26T01:11:28;10.40;99.90
16479;DHT22;8350;52.316;10.530;2022-12-26T01:14:08;10.40;99.90
16479;DHT22;8350;52.316;10.530;2022-12-26T01:16:37;10.40;99.90
16479;DHT22;8350;52.316;10.530;2022-12-26T01:19:05;10.40;99.90
16479;DHT22;8350;52.316;10.530;2022-12-26T01:21:32;10.30;99.90
16479;DHT22;8350;52.316;10.530;2022-12-26T01:23:59;10.30;99.90
16479;DHT22;8350;52.316;10.530;2022-12-26T01:26:26;10.30;99.90
16479;DHT22;8350;52.316;10.530;2022-12-26T01:28:59;10.30;99.90
16479;DHT22;8350;52.316;10.530;2022-12-26T01:31:26;10.30;99.90
16479;DHT22;8350;52.316;10.530;2022-12-26T01:33:56;10.20;99.90
16479;DHT22;8350;52.316;10.530;2022-12-26T01:36:26;10.20;99.90
16479;DHT22;8350;52.316;10.530;2022-12-26T01:38:55;10.20;99.90
16479;DHT22;8350;52.316;10.530;2022-12-26T01:41:22;10.20;99.90
16479;DHT22;8350;52.316;10.530;2022-12-26T01:43:53;10.20;99.90
16479;DHT22;8350;52.316;10.530;2022-12-26T01:46:22;10.10;99.90
16479;DHT22;8350;52.316;10.530;2022-12-26T01:48:50;10.20;99.90
16479;DHT22;8350;52.316;10.530;2022-12-26T01:51:20;10.10;99.90
16479;DHT22;8350;52.316;10.530;2022-12-26T01:53:52;10.20;99.90
16479;DHT22;8350;52.316;10.530;2022-12-26T01:56:22;10.20;99.90
16479;DHT22;8350;52.316;10.530;2022-12-26T01:58:54;10.20;99.90
16479;DHT22;8350;52.316;10.530;2022-12-26T02:01:25;10.20;99.90
16479;DHT22;8350;52.316;10.530;2022-12-26T02:03:54;10.20;99.90
16479;DHT22;8350;52.316;10.530;2022-12-26T02:06:40;10.10;99.90
16479;DHT22;8350;52.316;10.530;2022-12-26T02:09:11;10.20;99.90
16479;DHT22;8350;52.316;10.530;2022-12-26T02:11:41;10.10;99.90
16479;DHT22;8350;52.316;10.530;2022-12-26T02:14:09;10.20;99.90
16479;DHT22;8350;52.316;10.530;2022-12-26T02:16:37;10.20;99.90
16479;DHT22;8350;52.316;10.530;2022-12-26T02:19:14;10.20;99.90
16479;DHT22;8350;52.316;10.530;2022-12-26T02:22:06;10.20;99.90
16479;DHT22;8350;52.316;10.530;2022-12-26T02:24:59;10.20;99.90
16479;DHT22;8350;52.316;10.530;2022-12-26T02:27:44;10.10;99.90
16479;DHT22;8350;52.316;10.530;2022-12-26T02:30:38;10.20;99.90
16479;DHT22;8350;52.316;10.530;2022-12-26T02:39:00;10.10;99.90
16479;DHT22;8350;52.316;10.530;2022-12-26T02:41:37;10.20;99.90
16479;DHT22;8350;52.316;10.530;2022-12-26T02:44:16;10.10;99.90
16479;DHT22;8350;52.316;10.530;2022-12-26T02:47:10;10.10;99.90
16479;DHT22;8350;52.316;10.530;2022-12-26T02:49:51;10.10;99.90
16479;DHT22;8350;52.316;10.530;2022-12-26T02:52:44;10.20;99.90
16479;DHT22;8350;52.316;10.530;2022-12-26T02:55:33;10.20;99.90
16479;DHT22;8350;52.316;10.530;2022-12-26T02:58:30;10.20;99.90
16479;DHT22;8350;52.316;10.530;2022-12-26T03:01:22;10.20;99.90
16479;DHT22;8350;52.316;10.530;2022-12-26T03:04:12;10.20;99.90
16479;DHT22;8350;52.316;10.530;2022-12-26T03:07:00;10.20;99.90
16479;DHT22;8350;52.316;10.530;2022-12-26T03:09:46;10.20;99.90
16479;DHT22;8350;52.316;10.530;2022-12-26T03:12:37;10.30;99.90
16479;DHT22;8350;52.316;10.530;2022-12-26T03:15:24;10.30;99.90
16479;DHT22;8350;52.316;10.530;2022-12-26T03:17:56;10.30;99.90
16479;DHT22;8350;52.316;10.530;2022-12-26T03:20:25;10.30;99.90
16479;DHT22;8350;52.316;10.530;2022-12-26T03:22:54;10.30;99.90
16479;DHT22;8350;52.316;10.530;2022-12-26T03:25:29;10.30;99.90
16479;DHT22;8350;52.316;10.530;2022-12-26T03:28:15;10.30;99.90
16479;DHT22;8350;52.316;10.530;2022-12-26T03:30:42;10.30;99.90
16479;DHT22;8350;52.316;10.530;2022-12-26T03:33:14;10.30;99.90
16479;DHT22;8350;52.316;10.530;2022-12-26T03:36:00;10.30;99.90
16479;DHT22;8350;52.316;10.530;2022-12-26T03:38:33;10.20;99.90
16479;DHT22;8350;52.316;10.530;2022-12-26T03:41:05;10.30;99.90
16479;DHT22;8350;52.316;10.530;2022-12-26T03:44:03;10.30;99.90
16479;DHT22;8350;52.316;10.530;2022-12-26T03:46:58;10.20;99.90
16479;DHT22;8350;52.316;10.530;2022-12-26T03:49:46;10.20;99.90
16479;DHT22;8350;52.316;10.530;2022-12-26T03:52:38;10.20;99.90
16479;DHT22;8350;52.316;10.530;2022-12-26T03:55:34;10.20;99.90
16479;DHT22;8350;52.316;10.530;2022-12-26T03:58:23;10.20;99.90
16479;DHT22;8350;52.316;10.530;2022-12-26T04:01:14;10.30;99.90
16479;DHT22;8350;52.316;10.530;2022-12-26T04:04:01;10.20;99.90
16479;DHT22;8350;52.316;10.530;2022-12-26T04:06:50;10.20;99.90
16479;DHT22;8350;52.316;10.530;2022-12-26T04:09:40;10.30;99.90
16479;DHT22;8350;52.316;10.530;2022-12-26T04:12:27;10.30;99.90
16479;DHT22;8350;52.316;10.530;2022-12-26T04:15:19;10.30;99.90
16479;DHT22;8350;52.316;10.530;2022-12-26T04:18:08;10.30;99.90
16479;DHT22;8350;52.316;10.530;2022-12-26T04:21:05;10.30;99.90
16479;DHT22;8350;52.316;10.530;2022-12-26T04:23:55;10.30;99.90
16479;DHT22;8350;52.316;10.530;2022-12-26T04:26:44;10.30;99.90
16479;DHT22;8350;52.316;10.530;2022-12-26T04:29:30;10.30;99.90
16479;DHT22;8350;52.316;10.530;2022-12-26T04:32:21;10.30;99.90
16479;DHT22;8350;52.316;10.530;2022-12-26T04:35:13;10.20;99.90
16479;DHT22;8350;52.316;10.530;2022-12-26T04:38:00;10.20;99.90
16479;DHT22;8350;52.316;10.530;2022-12-26T04:40:50;10.10;99.90
16479;DHT22;8350;52.316;10.530;2022-12-26T04:43:42;10.10;99.90
16479;DHT22;8350;52.316;10.530;2022-12-26T04:46:27;10.00;99.90
16479;DHT22;8350;52.316;10.530;2022-12-26T04:48:56;9.90;99.90
16479;DHT22;8350;52.316;10.530;2022-12-26T04:51:41;9.80;99.90
16479;DHT22;8350;52.316;10.530;2022-12-26T04:54:08;9.70;99.90
16479;DHT22;8350;52.316;10.530;2022-12-26T04:56:34;9.70;99.90
16479;DHT22;8350;52.316;10.530;2022-12-26T04:59:03;9.60;99.90
16479;DHT22;8350;52.316;10.530;2022-12-26T05:01:29;9.50;99.90
16479;DHT22;8350;52.316;10.530;2022-12-26T05:04:16;9.50;99.90
16479;DHT22;8350;52.316;10.530;2022-12-26T05:07:01;9.40;99.90
16479;DHT22;8350;52.316;10.530;2022-12-26T05:09:48;9.40;99.90
16479;DHT22;8350;52.316;10.530;2022-12-26T05:12:17;9.40;99.90
16479;DHT22;8350;52.316;10.530;2022-12-26T05:14:45;9.40;99.90
16479;DHT22;8350;52.316;10.530;2022-12-26T05:17:12;9.40;99.90
16479;DHT22;8350;52.316;10.530;2022-12-26T05:20:00;9.40;99.90
16479;DHT22;8350;52.316;10.530;2022-12-26T05:22:45;9.40;99.90
16479;DHT22;8350;52.316;10.530;2022-12-26T05:25:32;9.40;99.90
16479;DHT22;8350;52.316;10.530;2022-12-26T05:28:18;9.30;99.90
16479;DHT22;8350;52.316;10.530;2022-12-26T05:31:04;9.30;99.90
16479;DHT22;8350;52.316;10.530;2022-12-26T05:33:31;9.30;99.90
16479;DHT22;8350;52.316;10.530;2022-12-26T05:36:17;9.30;99.90
16479;DHT22;8350;52.316;10.530;2022-12-26T05:38:45;9.40;99.90
16479;DHT22;8350;52.316;10.530;2022-12-26T05:41:12;9.40;99.90
16479;DHT22;8350;52.316;10.530;2022-12-26T05:43:39;9.40;99.90
16479;DHT22;8350;52.316;10.530;2022-12-26T05:46:07;9.40;99.90
16479;DHT22;8350;52.316;10.530;2022-12-26T05:48:34;9.40;99.90
16479;DHT22;8350;52.316;10.530;2022-12-26T05:51:02;9.40;99.90
16479;DHT22;8350;52.316;10.530;2022-12-26T05:53:30;9.40;99.90
16479;DHT22;8350;52.316;10.530;2022-12-26T05:56:01;9.50;99.90
16479;DHT22;8350;52.316;10.530;2022-12-26T05:58:29;9.50;99.90
16479;DHT22;8350;52.316;10.530;2022-12-26T06:01:04;9.50;99.90
16479;DHT22;8350;52.316;10.530;2022-12-26T06:03:32;9.60;99.90
16479;DHT22;8350;52.316;10.530;2022-12-26T06:05:59;9.60;99.90
16479;DHT22;8350;52.316;10.530;2022-12-26T06:08:26;9.70;99.90
16479;DHT22;8350;52.316;10.530;2022-12-26T06:10:53;9.70;99.90
16479;DHT22;8350;52.316;10.530;2022-12-26T06:13:20;9.70;99.90
16479;DHT22;8350;52.316;10.530;2022-12-26T06:15:47;9.80;99.90
16479;DHT22;8350;52.316;10.530;2022-12-26T06:18:14;9.80;99.90
16479;DHT22;8350;52.316;10.530;2022-12-26T06:20:42;9.80;99.90
16479;DHT22;8350;52.316;10.530;2022-12-26T06:23:09;9.80;99.90
16479;DHT22;8350;52.316;10.530;2022-12-26T06:25:35;9.80;99.90
16479;DHT22;8350;52.316;10.530;2022-12-26T06:28:02;9.80;99.90
16479;DHT22;8350;52.316;10.530;2022-12-26T06:30:29;9.80;99.90
16479;DHT22;8350;52.316;10.530;2022-12-26T06:32:56;9.70;99.90
16479;DHT22;8350;52.316;10.530;2022-12-26T06:35:23;9.70;99.90
16479;DHT22;8350;52.316;10.530;2022-12-26T06:37:51;9.70;99.90
16479;DHT22;8350;52.316;10.530;2022-12-26T06:40:18;9.70;99.90
16479;DHT22;8350;52.316;10.530;2022-12-26T06:42:45;9.80;99.90
16479;DHT22;8350;52.316;10.530;2022-12-26T06:45:12;9.80;99.90
16479;DHT22;8350;52.316;10.530;2022-12-26T06:47:39;9.80;99.90
16479;DHT22;8350;52.316;10.530;2022-12-26T06:50:06;9.80;99.90
16479;DHT22;8350;52.316;10.530;2022-12-26T06:52:33;9.80;99.90
16479;DHT22;8350;52.316;10.530;2022-12-26T06:55:01;9.80;99.90
16479;DHT22;8350;52.316;10.530;2022-12-26T06:57:28;9.80;99.90
16479;DHT22;8350;52.316;10.530;2022-12-26T06:59:55;9.80;99.90
16479;DHT22;8350;52.316;10.530;2022-12-26T07:02:22;9.80;99.90
16479;DHT22;8350;52.316;10.530;2022-12-26T07:04:49;9.80;99.90
16479;DHT22;8350;52.316;10.530;2022-12-26T07:07:18;9.80;99.90
16479;DHT22;8350;52.316;10.530;2022-12-26T07:09:45;9.80;99.90
16479;DHT22;8350;52.316;10.530;2022-12-26T07:12:16;9.80;99.90
16479;DHT22;8350;52.316;10.530;2022-12-26T07:14:46;9.70;99.90
16479;DHT22;8350;52.316;10.530;2022-12-26T07:17:13;9.70;99.90
16479;DHT22;8350;52.316;10.530;2022-12-26T07:19:39;9.70;99.90
16479;DHT22;8350;52.316;10.530;2022-12-26T07:22:06;9.60;99.90
16479;DHT22;8350;52.316;10.530;2022-12-26T07:24:33;9.60;99.90
16479;DHT22;8350;52.316;10.530;2022-12-26T07:27:00;9.60;99.90
16479;DHT22;8350;52.316;10.530;2022-12-26T07:29:28;9.60;99.90
16479;DHT22;8350;52.316;10.530;2022-12-26T07:31:55;9.60;99.90
16479;DHT22;8350;52.316;10.530;2022-12-26T07:34:22;9.50;99.90
16479;DHT22;8350;52.316;10.530;2022-12-26T07:36:49;9.50;99.90
16479;DHT22;8350;52.316;10.530;2022-12-26T07:39:16;9.50;99.90
16479;DHT22;8350;52.316;10.530;2022-12-26T07:41:43;9.50;99.90
16479;DHT22;8350;52.316;10.530;2022-12-26T07:44:26;9.50;99.90
16479;DHT22;8350;52.316;10.530;2022-12-26T07:46:55;9.50;99.90
16479;DHT22;8350;52.316;10.530;2022-12-26T07:49:23;9.40;99.90
16479;DHT22;8350;52.316;10.530;2022-12-26T07:51:50;9.40;99.90
16479;DHT22;8350;52.316;10.530;2022-12-26T07:54:17;9.40;99.90
16479;DHT22;8350;52.316;10.530;2022-12-26T07:56:44;9.40;99.90
16479;DHT22;8350;52.316;10.530;2022-12-26T07:59:13;9.40;99.90
16479;DHT22;8350;52.316;10.530;2022-12-26T08:01:40;9.40;99.90
16479;DHT22;8350;52.316;10.530;2022-12-26T08:04:09;9.40;99.90
16479;DHT22;8350;52.316;10.530;2022-12-26T08:06:36;9.40;99.90
16479;DHT22;8350;52.316;10.530;2022-12-26T08:09:03;9.30;99.90
16479;DHT22;8350;52.316;10.530;2022-12-26T08:11:32;9.30;99.90
16479;DHT22;8350;52.316;10.530;2022-12-26T08:13:59;9.40;99.90
16479;DHT22;8350;52.316;10.530;2022-12-26T08:16:26;9.30;99.90
16479;DHT22;8350;52.316;10.530;2022-12-26T08:18:53;9.30;99.90
16479;DHT22;8350;52.316;10.530;2022-12-26T08:21:22;9.30;99.90
16479;DHT22;8350;52.316;10.530;2022-12-26T08:23:48;9.30;99.90
16479;DHT22;8350;52.316;10.530;2022-12-26T08:26:15;9.30;99.90
16479;DHT22;8350;52.316;10.530;2022-12-26T08:28:47;9.30;99.90
16479;DHT22;8350;52.316;10.530;2022-12-26T08:31:14;9.30;99.90
16479;DHT22;8350;52.316;10.530;2022-12-26T08:33:41;9.30;99.90
16479;DHT22;8350;52.316;10.530;2022-12-26T08:36:09;9.20;99.90
16479;DHT22;8350;52.316;10.530;2022-12-26T08:38:41;9.30;99.90
16479;DHT22;8350;52.316;10.530;2022-12-26T08:41:08;9.30;99.90
16479;DHT22;8350;52.316;10.530;2022-12-26T08:43:35;9.30;99.90
16479;DHT22;8350;52.316;10.530;2022-12-26T08:46:05;9.30;99.90
16479;DHT22;8350;52.316;10.530;2022-12-26T08:48:35;9.30;99.90
16479;DHT22;8350;52.316;10.530;2022-12-26T08:51:04;9.30;99.90
16479;DHT22;8350;52.316;10.530;2022-12-26T08:53:32;9.30;99.90
16479;DHT22;8350;52.316;10.530;2022-12-26T08:56:02;9.30;99.90
16479;DHT22;8350;52.316;10.530;2022-12-26T08:58:29;9.30;99.90
16479;DHT22;8350;52.316;10.530;2022-12-26T09:01:08;9.30;99.90
16479;DHT22;8350;52.316;10.530;2022-12-26T09:03:35;9.40;99.90
16479;DHT22;8350;52.316;10.530;2022-12-26T09:06:03;9.40;99.90
16479;DHT22;8350;52.316;10.530;2022-12-26T09:08:31;9.40;99.90
16479;DHT22;8350;52.316;10.530;2022-12-26T09:11:02;9.40;99.90
16479;DHT22;8350;52.316;10.530;2022-12-26T09:13:30;9.40;99.90
16479;DHT22;8350;52.316;10.530;2022-12-26T09:16:04;9.50;99.90
16479;DHT22;8350;52.316;10.530;2022-12-26T09:18:31;9.50;99.90
16479;DHT22;8350;52.316;10.530;2022-12-26T09:20:59;9.50;99.90
16479;DHT22;8350;52.316;10.530;2022-12-26T09:23:26;9.50;99.90
16479;DHT22;8350;52.316;10.530;2022-12-26T09:25:53;9.50;99.90
16479;DHT22;8350;52.316;10.530;2022-12-26T09:28:21;9.50;99.90
16479;DHT22;8350;52.316;10.530;2022-12-26T09:30:48;9.60;99.90
16479;DHT22;8350;52.316;10.530;2022-12-26T09:33:15;9.60;99.90
16479;DHT22;8350;52.316;10.530;2022-12-26T09:35:45;9.70;99.90
16479;DHT22;8350;52.316;10.530;2022-12-26T09:38:12;9.70;99.90
16479;DHT22;8350;52.316;10.530;2022-12-26T09:40:48;9.70;99.90
16479;DHT22;8350;52.316;10.530;2022-12-26T09:43:22;9.70;99.90
16479;DHT22;8350;52.316;10.530;2022-12-26T09:45:57;9.70;99.90
16479;DHT22;8350;52.316;10.530;2022-12-26T09:48:36;9.70;99.90
16479;DHT22;8350;52.316;10.530;2022-12-26T09:51:06;9.80;99.90
16479;DHT22;8350;52.316;10.530;2022-12-26T09:53:39;9.80;99.90
16479;DHT22;8350;52.316;10.530;2022-12-26T09:56:12;9.80;99.90
16479;DHT22;8350;52.316;10.530;2022-12-26T09:58:43;9.80;99.90
16479;DHT22;8350;52.316;10.530;2022-12-26T10:01:14;9.90;99.90
16479;DHT22;8350;52.316;10.530;2022-12-26T10:03:43;9.90;99.90
16479;DHT22;8350;52.316;10.530;2022-12-26T10:06:16;10.00;99.90
16479;DHT22;8350;52.316;10.530;2022-12-26T10:09:00;10.10;99.90
16479;DHT22;8350;52.316;10.530;2022-12-26T10:11:37;10.10;99.90
16479;DHT22;8350;52.316;10.530;2022-12-26T10:14:14;10.10;99.90
16479;DHT22;8350;52.316;10.530;2022-12-26T10:16:50;10.20;99.90
16479;DHT22;8350;52.316;10.530;2022-12-26T10:19:29;10.10;99.90
16479;DHT22;8350;52.316;10.530;2022-12-26T10:22:19;10.10;99.90
16479;DHT22;8350;52.316;10.530;2022-12-26T10:24:50;10.10;99.90
16479;DHT22;8350;52.316;10.530;2022-12-26T10:27:18;10.10;99.90
16479;DHT22;8350;52.316;10.530;2022-12-26T10:29:51;10.10;99.90
16479;DHT22;8350;52.316;10.530;2022-12-26T10:32:24;10.10;99.90
16479;DHT22;8350;52.316;10.530;2022-12-26T10:34:52;10.10;99.90
16479;DHT22;8350;52.316;10.530;2022-12-26T10:37:27;10.10;99.90
16479;DHT22;8350;52.316;10.530;2022-12-26T10:39:57;10.10;99.90
16479;DHT22;8350;52.316;10.530;2022-12-26T10:42:28;10.10;99.90
16479;DHT22;8350;52.316;10.530;2022-12-26T10:44:57;10.10;99.90
16479;DHT22;8350;52.316;10.530;2022-12-26T10:47:27;10.10;99.90
16479;DHT22;8350;52.316;10.530;2022-12-26T10:49:55;10.10;99.90
16479;DHT22;8350;52.316;10.530;2022-12-26T10:52:28;10.10;99.90
16479;DHT22;8350;52.316;10.530;2022-12-26T10:54:58;10.10;99.90
16479;DHT22;8350;52.316;10.530;2022-12-26T10:57:27;10.20;99.90
16479;DHT22;8350;52.316;10.530;2022-12-26T10:59:54;10.20;99.90
16479;DHT22;8350;52.316;10.530;2022-12-26T11:02:25;10.20;99.90
16479;DHT22;8350;52.316;10.530;2022-12-26T11:05:01;10.20;99.90
16479;DHT22;8350;52.316;10.530;2022-12-26T11:07:32;10.30;99.90
16479;DHT22;8350;52.316;10.530;2022-12-26T11:10:01;10.20;99.90
16479;DHT22;8350;52.316;10.530;2022-12-26T11:12:36;10.30;99.90
16479;DHT22;8350;52.316;10.530;2022-12-26T11:15:15;10.30;99.90
16479;DHT22;8350;52.316;10.530;2022-12-26T11:17:49;10.30;99.90
16479;DHT22;8350;52.316;10.530;2022-12-26T11:20:28;10.40;99.90
16479;DHT22;8350;52.316;10.530;2022-12-26T11:23:17;10.40;99.90
16479;DHT22;8350;52.316;10.530;2022-12-26T11:25:50;10.40;99.90
16479;DHT22;8350;52.316;10.530;2022-12-26T11:28:27;10.50;99.90
16479;DHT22;8350;52.316;10.530;2022-12-26T11:30:54;10.60;99.90
16479;DHT22;8350;52.316;10.530;2022-12-26T11:33:26;10.70;99.90
16479;DHT22;8350;52.316;10.530;2022-12-26T11:36:00;10.80;99.90
16479;DHT22;8350;52.316;10.530;2022-12-26T11:38:30;10.80;99.90
16479;DHT22;8350;52.316;10.530;2022-12-26T11:41:03;10.90;99.90
16479;DHT22;8350;52.316;10.530;2022-12-26T11:43:49;10.90;99.90
16479;DHT22;8350;52.316;10.530;2022-12-26T11:46:16;10.90;99.90
16479;DHT22;8350;52.316;10.530;2022-12-26T11:48:49;11.00;99.90
16479;DHT22;8350;52.316;10.530;2022-12-26T11:51:29;11.00;99.90
16479;DHT22;8350;52.316;10.530;2022-12-26T11:54:12;11.00;99.90
16479;DHT22;8350;52.316;10.530;2022-12-26T11:56:44;11.00;99.90
16479;DHT22;8350;52.316;10.530;2022-12-26T11:59:17;11.00;99.90
16479;DHT22;8350;52.316;10.530;2022-12-26T12:01:44;11.10;99.90
16479;DHT22;8350;52.316;10.530;2022-12-26T12:04:13;11.10;99.90
16479;DHT22;8350;52.316;10.530;2022-12-26T12:06:55;11.10;99.90
16479;DHT22;8350;52.316;10.530;2022-12-26T12:09:33;11.10;99.90
16479;DHT22;8350;52.316;10.530;2022-12-26T12:12:13;11.00;99.90
16479;DHT22;8350;52.316;10.530;2022-12-26T12:14:54;11.00;99.90
16479;DHT22;8350;52.316;10.530;2022-12-26T12:17:24;11.00;99.90
16479;DHT22;8350;52.316;10.530;2022-12-26T12:20:13;11.00;99.90
16479;DHT22;8350;52.316;10.530;2022-12-26T12:23:09;10.90;99.90
16479;DHT22;8350;52.316;10.530;2022-12-26T12:25:50;10.90;99.90
16479;DHT22;8350;52.316;10.530;2022-12-26T12:28:48;10.90;99.90
16479;DHT22;8350;52.316;10.530;2022-12-26T12:31:30;10.90;99.90
16479;DHT22;8350;52.316;10.530;2022-12-26T12:34:06;10.90;99.90
16479;DHT22;8350;52.316;10.530;2022-12-26T12:36:52;11.00;99.90
16479;DHT22;8350;52.316;10.530;2022-12-26T12:39:32;11.10;99.90
16479;DHT22;8350;52.316;10.530;2022-12-26T12:42:11;11.20;99.90
16479;DHT22;8350;52.316;10.530;2022-12-26T12:44:58;11.20;83.30
16479;DHT22;8350;52.316;10.530;2022-12-26T12:47:34;11.20;45.90
16479;DHT22;8350;52.316;10.530;2022-12-26T12:50:15;11.20;37.00
16479;DHT22;8350;52.316;10.530;2022-12-26T12:52:59;11.20;15.00
16479;DHT22;8350;52.316;10.530;2022-12-26T12:55:54;11.30;27.30
16479;DHT22;8350;52.316;10.530;2022-12-26T12:58:29;11.30;12.20
16479;DHT22;8350;52.316;10.530;2022-12-26T13:01:02;11.20;21.00
16479;DHT22;8350;52.316;10.530;2022-12-26T13:03:38;11.20;20.10
16479;DHT22;8350;52.316;10.530;2022-12-26T13:06:10;11.10;20.00
16479;DHT22;8350;52.316;10.530;2022-12-26T13:08:42;11.10;22.40
16479;DHT22;8350;52.316;10.530;2022-12-26T13:11:16;11.00;36.20
16479;DHT22;8350;52.316;10.530;2022-12-26T13:13:48;11.00;22.70
16479;DHT22;8350;52.316;10.530;2022-12-26T13:16:18;11.00;24.20
16479;DHT22;8350;52.316;10.530;2022-12-26T13:18:49;11.00;21.70
16479;DHT22;8350;52.316;10.530;2022-12-26T13:21:17;11.00;27.60
16479;DHT22;8350;52.316;10.530;2022-12-26T13:23:48;11.00;19.40
16479;DHT22;8350;52.316;10.530;2022-12-26T13:26:36;11.00;16.50
16479;DHT22;8350;52.316;10.530;2022-12-26T13:29:09;11.00;4.60
16479;DHT22;8350;52.316;10.530;2022-12-26T13:31:38;11.10;10.70
16479;DHT22;8350;52.316;10.530;2022-12-26T13:34:09;11.10;6.80
16479;DHT22;8350;52.316;10.530;2022-12-26T13:36:40;11.10;5.40
16479;DHT22;8350;52.316;10.530;2022-12-26T13:39:34;11.10;1.80
16479;DHT22;8350;52.316;10.530;2022-12-26T13:42:16;11.10;11.30
16479;DHT22;8350;52.316;10.530;2022-12-26T13:48:02;11.10;27.10
16479;DHT22;8350;52.316;10.530;2022-12-26T13:50:49;11.10;9.40
16479;DHT22;8350;52.316;10.530;2022-12-26T13:53:29;11.10;19.50
16479;DHT22;8350;52.316;10.530;2022-12-26T13:56:00;11.10;11.40
16479;DHT22;8350;52.316;10.530;2022-12-26T13:58:43;11.00;8.60
16479;DHT22;8350;52.316;10.530;2022-12-26T14:01:27;11.10;4.80
16479;DHT22;8350;52.316;10.530;2022-12-26T14:04:10;11.00;1.00
16479;DHT22;8350;52.316;10.530;2022-12-26T14:07:00;11.00;4.70
16479;DHT22;8350;52.316;10.530;2022-12-26T14:09:48;10.90;15.50
16479;DHT22;8350;52.316;10.530;2022-12-26T14:12:43;11.00;4.60
16479;DHT22;8350;52.316;10.530;2022-12-26T14:15:38;10.90;9.20
16479;DHT22;8350;52.316;10.530;2022-12-26T14:18:27;10.90;14.30
16479;DHT22;8350;52.316;10.530;2022-12-26T14:21:21;10.90;29.30
16479;DHT22;8350;52.316;10.530;2022-12-26T14:23:54;10.90;18.80
16479;DHT22;8350;52.316;10.530;2022-12-26T14:26:34;10.90;33.20
16479;DHT22;8350;52.316;10.530;2022-12-26T14:29:11;10.80;76.00
16479;DHT22;8350;52.316;10.530;2022-12-26T14:31:54;10.70;99.90
16479;DHT22;8350;52.316;10.530;2022-12-26T14:34:43;10.50;99.90
16479;DHT22;8350;52.316;10.530;2022-12-26T14:37:17;10.30;99.90
16479;DHT22;8350;52.316;10.530;2022-12-26T14:39:56;10.10;99.90
16479;DHT22;8350;52.316;10.530;2022-12-26T14:42:27;10.00;99.90
16479;DHT22;8350;52.316;10.530;2022-12-26T14:45:39;9.80;99.90
16479;DHT22;8350;52.316;10.530;2022-12-26T14:57:00;8.90;99.90
16479;DHT22;8350;52.316;10.530;2022-12-26T14:59:29;8.80;99.90
16479;DHT22;8350;52.316;10.530;2022-12-26T15:02:17;8.70;99.90
16479;DHT22;8350;52.316;10.530;2022-12-26T15:05:03;8.70;99.90
16479;DHT22;8350;52.316;10.530;2022-12-26T15:11:06;8.60;99.90
16479;DHT22;8350;52.316;10.530;2022-12-26T15:16:44;8.60;99.90
16479;DHT22;8350;52.316;10.530;2022-12-26T15:22:54;8.50;99.90
16479;DHT22;8350;52.316;10.530;2022-12-26T15:29:02;8.50;99.90
16479;DHT22;8350;52.316;10.530;2022-12-26T15:31:54;8.50;99.90
16479;DHT22;8350;52.316;10.530;2022-12-26T15:37:29;8.40;99.90
16479;DHT22;8350;52.316;10.530;2022-12-26T15:40:07;8.40;99.90
16479;DHT22;8350;52.316;10.530;2022-12-26T15:42:47;8.30;99.90
16479;DHT22;8350;52.316;10.530;2022-12-26T15:45:28;8.10;99.90
16479;DHT22;8350;52.316;10.530;2022-12-26T15:48:25;8.00;99.90
16479;DHT22;8350;52.316;10.530;2022-12-26T15:51:00;7.90;99.90
16479;DHT22;8350;52.316;10.530;2022-12-26T15:53:36;7.70;99.90
16479;DHT22;8350;52.316;10.530;2022-12-26T15:59:37;7.50;99.90
16479;DHT22;8350;52.316;10.530;2022-12-26T16:02:11;7.40;99.90
16479;DHT22;8350;52.316;10.530;2022-12-26T16:04:40;7.40;99.90
16479;DHT22;8350;52.316;10.530;2022-12-26T16:07:24;7.30;99.90
16479;DHT22;8350;52.316;10.530;2022-12-26T16:09:58;7.20;99.90
16479;DHT22;8350;52.316;10.530;2022-12-26T16:12:27;7.10;99.90
16479;DHT22;8350;52.316;10.530;2022-12-26T16:15:13;7.10;99.90
16479;DHT22;8350;52.316;10.530;2022-12-26T16:17:42;7.00;99.90
16479;DHT22;8350;52.316;10.530;2022-12-26T16:20:30;7.00;99.90
16479;DHT22;8350;52.316;10.530;2022-12-26T16:23:17;7.00;99.90
16479;DHT22;8350;52.316;10.530;2022-12-26T16:25:46;7.00;99.90
16479;DHT22;8350;52.316;10.530;2022-12-26T16:28:20;7.00;99.90
16479;DHT22;8350;52.316;10.530;2022-12-26T16:30:48;7.00;99.90
16479;DHT22;8350;52.316;10.530;2022-12-26T16:33:15;7.00;99.90
16479;DHT22;8350;52.316;10.530;2022-12-26T16:35:42;7.00;99.90
16479;DHT22;8350;52.316;10.530;2022-12-26T16:38:13;6.90;99.90
16479;DHT22;8350;52.316;10.530;2022-12-26T16:40:43;6.90;99.90
16479;DHT22;8350;52.316;10.530;2022-12-26T16:43:28;6.90;99.90
16479;DHT22;8350;52.316;10.530;2022-12-26T16:45:57;6.90;99.90
16479;DHT22;8350;52.316;10.530;2022-12-26T16:48:28;6.80;99.90
16479;DHT22;8350;52.316;10.530;2022-12-26T16:50:59;6.80;99.90
16479;DHT22;8350;52.316;10.530;2022-12-26T16:53:41;6.70;99.90
16479;DHT22;8350;52.316;10.530;2022-12-26T16:56:23;6.70;99.90
16479;DHT22;8350;52.316;10.530;2022-12-26T16:58:56;6.60;99.90
16479;DHT22;8350;52.316;10.530;2022-12-26T17:01:24;6.60;99.90